Time;durP1;ratioP1;P1;durP2;ratioP2;P2;SDS_P1;SDS_P2;PMS_P1;PMS_P2;Temp;Humidity;BMP_temperature;BMP_pressure;BME280_temperature;BME280_humidity;BME280_pressure;Samples;Min_cycle;Max_cycle;Signal;HPM_P1;HPM_P2
2021/07/23 00:01:15;;;;;;;87.55;49.42;;;;;;;;;;5047501;28;20071;-62
2021/07/23 00:03:40;;;;;;;87.75;49.20;;;;;;;;;;5036946;28;20604;-62
2021/07/23 00:06:06;;;;;;;78.60;48.13;;;;;;;;;;5041625;28;20028;-62
2021/07/23 00:08:32;;;;;;;88.78;47.47;;;;;;;;;;5038994;28;20033;-62
2021/07/23 00:10:57;;;;;;;85.07;48.03;;;;;;;;;;5051704;28;20499;-62
2021/07/23 00:13:23;;;;;;;85.97;46.83;;;;;;;;;;5047471;28;20020;-62
2021/07/23 00:15:48;;;;;;;93.60;50.97;;;;;;;;;;5032740;28;20053;-63
2021/07/23 00:18:14;;;;;;;84.60;50.33;;;;;;;;;;5034306;28;20033;-62
2021/07/23 00:20:39;;;;;;;85.63;46.83;;;;;;;;;;5032690;28;20067;-62
2021/07/23 00:23:05;;;;;;;82.85;47.08;;;;;;;;;;5040151;28;20036;-62
2021/07/23 00:25:30;;;;;;;87.82;49.75;;;;;;;;;;5046376;28;20029;-62
2021/07/23 00:27:56;;;;;;;84.38;47.70;;;;;;;;;;5040341;28;20035;-62
2021/07/23 00:30:21;;;;;;;83.43;50.13;;;;;;;;;;5050698;28;20038;-61
2021/07/23 00:32:47;;;;;;;79.53;47.00;;;;;;;;;;5037404;28;20029;-63
2021/07/23 00:35:13;;;;;;;72.95;45.35;;;;;;;;;;5040378;28;20048;-62
2021/07/23 00:37:38;;;;;;;80.50;49.75;;;;;;;;;;5042258;28;20085;-62
2021/07/23 00:40:07;;;;;;;78.63;48.47;;;;;;;;;;5044553;28;20086;-62
2021/07/23 00:42:39;;;;;;;83.40;46.90;;;;;;;;;;5040195;28;20047;-63
2021/07/23 00:45:05;;;;;;;77.07;46.13;;;;;;;;;;5047273;28;20119;-62
2021/07/23 00:47:31;;;;;;;79.82;47.95;;;;;;;;;;5043811;28;20190;-62
2021/07/23 00:49:56;;;;;;;75.88;45.80;;;;;;;;;;5043023;28;20082;-62
2021/07/23 00:52:22;;;;;;;79.13;46.40;;;;;;;;;;5045250;28;20112;-62
2021/07/23 00:54:48;;;;;;;77.63;45.67;;;;;;;;;;5048981;28;20160;-63
2021/07/23 00:57:13;;;;;;;76.30;46.90;;;;;;;;;;5046274;28;20029;-62
2021/07/23 00:59:39;;;;;;;82.57;47.88;;;;;;;;;;5043136;28;20130;-63
2021/07/23 01:02:04;;;;;;;79.50;47.88;;;;;;;;;;5044423;28;20533;-62
2021/07/23 01:04:31;;;;;;;77.55;47.03;;;;;;;;;;5051322;28;20021;-63
2021/07/23 01:06:56;;;;;;;81.13;46.88;;;;;;;;;;5050468;28;20576;-62
2021/07/23 01:09:22;;;;;;;89.10;49.25;;;;;;;;;;5038301;28;20041;-62
2021/07/23 01:11:47;;;;;;;90.20;48.92;;;;;;;;;;5050704;28;20403;-62
2021/07/23 01:14:13;;;;;;;88.20;49.63;;;;;;;;;;5037185;28;20721;-62
2021/07/23 01:16:39;;;;;;;87.85;50.42;;;;;;;;;;5048932;28;20053;-62
2021/07/23 01:19:05;;;;;;;78.35;47.63;;;;;;;;;;5045416;28;20059;-62
2021/07/23 01:21:32;;;;;;;79.88;47.83;;;;;;;;;;5052554;28;20060;-62
2021/07/23 01:23:59;;;;;;;91.65;49.67;;;;;;;;;;5041677;28;20032;-62
2021/07/23 01:26:25;;;;;;;83.32;49.25;;;;;;;;;;5035745;28;20108;-62
2021/07/23 01:28:50;;;;;;;91.25;49.80;;;;;;;;;;5042769;28;20123;-61
2021/07/23 01:31:16;;;;;;;83.90;48.53;;;;;;;;;;5042603;28;20060;-60
2021/07/23 01:33:41;;;;;;;83.28;46.83;;;;;;;;;;5043704;28;20475;-62
2021/07/23 01:36:07;;;;;;;89.32;50.45;;;;;;;;;;5050075;28;20091;-62
2021/07/23 01:38:34;;;;;;;92.53;51.25;;;;;;;;;;5048760;28;20499;-62
2021/07/23 01:41:00;;;;;;;80.97;47.15;;;;;;;;;;5044461;28;20028;-61
2021/07/23 01:43:27;;;;;;;90.00;50.78;;;;;;;;;;5042879;28;20025;-62
2021/07/23 01:45:53;;;;;;;86.57;49.47;;;;;;;;;;5048879;28;20102;-61
2021/07/23 01:48:20;;;;;;;92.65;48.80;;;;;;;;;;5049194;28;20440;-61
2021/07/23 01:50:45;;;;;;;82.80;49.30;;;;;;;;;;5048073;28;20498;-60
2021/07/23 01:53:11;;;;;;;92.05;48.03;;;;;;;;;;5049115;28;20037;-60
2021/07/23 01:55:36;;;;;;;81.05;46.70;;;;;;;;;;5049305;28;20040;-60
2021/07/23 01:58:02;;;;;;;86.70;45.25;;;;;;;;;;5045232;28;20047;-60
2021/07/23 02:00:27;;;;;;;91.15;47.40;;;;;;;;;;5045212;28;20049;-60
2021/07/23 02:02:52;;;;;;;82.40;46.65;;;;;;;;;;5048779;28;20033;-60
2021/07/23 02:05:18;;;;;;;81.03;45.28;;;;;;;;;;5047999;28;20071;-59
2021/07/23 02:07:44;;;;;;;80.43;45.85;;;;;;;;;;5050195;28;20033;-60
2021/07/23 02:10:09;;;;;;;71.95;41.53;;;;;;;;;;5049922;28;20384;-60
2021/07/23 02:12:35;;;;;;;71.20;42.58;;;;;;;;;;5039667;28;20028;-61
2021/07/23 02:15:01;;;;;;;78.90;45.03;;;;;;;;;;5039131;28;20662;-61
2021/07/23 02:17:26;;;;;;;79.80;43.55;;;;;;;;;;5045827;28;20041;-61
2021/07/23 02:19:52;;;;;;;70.55;42.00;;;;;;;;;;5043381;28;20037;-60
2021/07/23 02:22:17;;;;;;;74.10;41.10;;;;;;;;;;5043133;28;20452;-61
2021/07/23 02:24:43;;;;;;;74.75;42.22;;;;;;;;;;5039583;28;20507;-60
2021/07/23 02:27:11;;;;;;;74.60;42.97;;;;;;;;;;5032896;28;20041;-60
2021/07/23 02:29:37;;;;;;;78.93;45.05;;;;;;;;;;5041227;28;20056;-60
2021/07/23 02:32:03;;;;;;;79.65;45.63;;;;;;;;;;5034733;28;20477;-60
2021/07/23 02:34:29;;;;;;;75.80;42.67;;;;;;;;;;5033306;28;20026;-62
2021/07/23 02:36:55;;;;;;;79.57;43.53;;;;;;;;;;5038809;28;20033;-62
2021/07/23 02:39:22;;;;;;;69.88;42.40;;;;;;;;;;5040134;28;20450;-62
2021/07/23 02:41:48;;;;;;;75.88;44.28;;;;;;;;;;5038326;28;20056;-61
2021/07/23 02:44:13;;;;;;;79.35;43.05;;;;;;;;;;5036288;28;20053;-62
2021/07/23 02:46:39;;;;;;;73.22;42.03;;;;;;;;;;5036561;28;20037;-61
2021/07/23 02:49:04;;;;;;;73.22;40.78;;;;;;;;;;5036055;28;20455;-61
2021/07/23 02:51:29;;;;;;;71.68;40.25;;;;;;;;;;5032633;28;20040;-61
2021/07/23 02:53:55;;;;;;;70.65;41.50;;;;;;;;;;5034448;28;20033;-61
2021/07/23 02:56:20;;;;;;;77.82;42.22;;;;;;;;;;5034463;28;20029;-61
2021/07/23 02:58:47;;;;;;;68.88;40.38;;;;;;;;;;5040818;28;20112;-61
2021/07/23 03:01:12;;;;;;;73.63;41.83;;;;;;;;;;5042168;28;20108;-61
2021/07/23 03:03:38;;;;;;;69.60;39.88;;;;;;;;;;5041241;28;20108;-61
2021/07/23 03:06:03;;;;;;;69.50;40.80;;;;;;;;;;5033411;28;20289;-61
2021/07/23 03:08:29;;;;;;;74.03;40.72;;;;;;;;;;5043577;28;20036;-60
2021/07/23 03:10:55;;;;;;;74.40;39.95;;;;;;;;;;5047280;28;20037;-61
2021/07/23 03:13:21;;;;;;;77.13;40.08;;;;;;;;;;5032591;28;20117;-60
2021/07/23 03:15:46;;;;;;;71.38;39.70;;;;;;;;;;5039660;28;20120;-61
2021/07/23 03:18:12;;;;;;;68.72;39.08;;;;;;;;;;5046899;28;20259;-60
2021/07/23 03:20:38;;;;;;;68.30;38.72;;;;;;;;;;5037176;28;20034;-61
2021/07/23 03:23:04;;;;;;;70.93;38.97;;;;;;;;;;5041351;28;20505;-61
2021/07/23 03:25:30;;;;;;;67.35;39.45;;;;;;;;;;5038145;28;20024;-60
2021/07/23 03:27:55;;;;;;;69.68;38.72;;;;;;;;;;5048423;28;20104;-62
2021/07/23 03:30:21;;;;;;;66.88;37.40;;;;;;;;;;5037915;28;20206;-61
2021/07/23 03:32:46;;;;;;;68.70;38.38;;;;;;;;;;5042370;28;20033;-61
2021/07/23 03:35:12;;;;;;;65.68;37.15;;;;;;;;;;5043700;28;20044;-61
2021/07/23 03:37:37;;;;;;;68.82;36.80;;;;;;;;;;5045236;28;20036;-61
2021/07/23 03:40:04;;;;;;;71.00;37.92;;;;;;;;;;5041781;28;20044;-62
2021/07/23 03:42:32;;;;;;;64.13;36.78;;;;;;;;;;5043161;28;20079;-61
2021/07/23 03:44:58;;;;;;;61.22;36.40;;;;;;;;;;5043071;28;20022;-60
2021/07/23 03:47:23;;;;;;;64.57;35.92;;;;;;;;;;5041832;28;20054;-60
2021/07/23 03:49:48;;;;;;;64.35;35.28;;;;;;;;;;5039215;28;20029;-60
2021/07/23 03:52:14;;;;;;;57.50;34.30;;;;;;;;;;5039379;28;20090;-60
2021/07/23 03:54:39;;;;;;;63.53;35.28;;;;;;;;;;5042066;28;20033;-60
2021/07/23 03:57:05;;;;;;;62.40;34.47;;;;;;;;;;5045430;28;20392;-60
2021/07/23 03:59:35;;;;;;;62.53;34.72;;;;;;;;;;5040566;28;20123;-60
2021/07/23 04:02:01;;;;;;;60.17;35.47;;;;;;;;;;5045899;28;20128;-60
2021/07/23 04:04:27;;;;;;;54.30;32.72;;;;;;;;;;5047382;28;20044;-61
2021/07/23 04:06:59;;;;;;;56.95;33.92;;;;;;;;;;5047620;28;20029;-60
2021/07/23 04:09:26;;;;;;;58.05;32.97;;;;;;;;;;5042456;28;20025;-61
2021/07/23 04:11:52;;;;;;;59.47;34.35;;;;;;;;;;5036532;28;20037;-60
2021/07/23 04:14:18;;;;;;;61.08;34.97;;;;;;;;;;5043875;28;20079;-60
2021/07/23 04:16:44;;;;;;;59.92;35.25;;;;;;;;;;5038273;28;20049;-60
2021/07/23 04:19:10;;;;;;;67.95;34.90;;;;;;;;;;5046880;28;20043;-60
2021/07/23 04:21:35;;;;;;;64.68;35.25;;;;;;;;;;5037380;28;20033;-60
2021/07/23 04:24:01;;;;;;;66.25;37.13;;;;;;;;;;5039784;28;20340;-61
2021/07/23 04:26:27;;;;;;;54.08;33.60;;;;;;;;;;5031317;28;20097;-60
2021/07/23 04:28:52;;;;;;;57.47;34.08;;;;;;;;;;5037940;28;20040;-60
2021/07/23 04:31:19;;;;;;;63.30;35.47;;;;;;;;;;5030731;28;20210;-60
2021/07/23 04:33:44;;;;;;;64.32;36.70;;;;;;;;;;5039131;28;20021;-60
2021/07/23 04:36:10;;;;;;;63.17;36.25;;;;;;;;;;5038591;28;20048;-61
2021/07/23 04:38:36;;;;;;;64.88;34.20;;;;;;;;;;5032271;28;20017;-60
2021/07/23 04:41:03;;;;;;;56.83;33.92;;;;;;;;;;5040741;28;20052;-60
2021/07/23 04:43:28;;;;;;;55.15;32.17;;;;;;;;;;5039060;28;20029;-61
2021/07/23 04:45:54;;;;;;;58.85;32.75;;;;;;;;;;5044205;28;20578;-62
2021/07/23 04:48:19;;;;;;;57.85;32.30;;;;;;;;;;5043570;28;20024;-60
2021/07/23 04:50:44;;;;;;;57.83;31.98;;;;;;;;;;5038329;28;20049;-61
2021/07/23 04:53:10;;;;;;;51.22;30.23;;;;;;;;;;5037907;28;20041;-62
2021/07/23 04:55:36;;;;;;;55.70;31.15;;;;;;;;;;5040779;28;20444;-62
2021/07/23 04:58:02;;;;;;;54.40;32.10;;;;;;;;;;5041018;28;20056;-62
2021/07/23 05:00:28;;;;;;;61.40;32.50;;;;;;;;;;5041799;28;20459;-62
2021/07/23 05:02:54;;;;;;;53.42;31.88;;;;;;;;;;5041146;28;20449;-61
2021/07/23 05:05:21;;;;;;;57.45;31.23;;;;;;;;;;5031511;28;20022;-62
2021/07/23 05:07:47;;;;;;;58.53;30.63;;;;;;;;;;5038417;28;20033;-61
2021/07/23 05:10:12;;;;;;;52.30;30.52;;;;;;;;;;5035119;28;20481;-60
2021/07/23 05:12:39;;;;;;;51.30;30.42;;;;;;;;;;5039178;28;20040;-60
2021/07/23 05:15:06;;;;;;;52.85;29.75;;;;;;;;;;5037322;28;20068;-60
2021/07/23 05:17:33;;;;;;;49.70;29.13;;;;;;;;;;5034017;28;20052;-60
2021/07/23 05:20:00;;;;;;;55.88;31.17;;;;;;;;;;5040582;28;20043;-60
2021/07/23 05:22:26;;;;;;;50.05;30.38;;;;;;;;;;5044903;28;20013;-60
2021/07/23 05:24:52;;;;;;;50.38;29.48;;;;;;;;;;5039236;28;20021;-60
2021/07/23 05:27:17;;;;;;;51.25;29.83;;;;;;;;;;5035126;28;20558;-60
2021/07/23 05:29:43;;;;;;;45.47;26.23;;;;;;;;;;5037433;28;20029;-60
2021/07/23 05:32:08;;;;;;;49.22;27.65;;;;;;;;;;5037186;28;20036;-61
2021/07/23 05:34:34;;;;;;;45.08;27.00;;;;;;;;;;5040327;28;20102;-60
2021/07/23 05:36:59;;;;;;;43.55;26.70;;;;;;;;;;5039390;28;20053;-60
2021/07/23 05:39:24;;;;;;;44.13;25.75;;;;;;;;;;5040950;28;20383;-60
2021/07/23 05:41:50;;;;;;;48.80;27.50;;;;;;;;;;5039435;28;20053;-60
2021/07/23 05:44:15;;;;;;;44.17;26.73;;;;;;;;;;5044903;28;20743;-62
2021/07/23 05:46:41;;;;;;;43.65;25.55;;;;;;;;;;5042264;28;20031;-60
2021/07/23 05:49:06;;;;;;;44.40;25.90;;;;;;;;;;5049146;28;20056;-60
2021/07/23 05:51:32;;;;;;;40.33;24.75;;;;;;;;;;5047667;28;20289;-61
2021/07/23 05:53:57;;;;;;;47.08;26.48;;;;;;;;;;5043510;28;20029;-60
2021/07/23 05:56:23;;;;;;;46.88;25.25;;;;;;;;;;5044304;28;20473;-60
2021/07/23 05:58:48;;;;;;;41.30;24.60;;;;;;;;;;5040347;28;20082;-60
2021/07/23 06:01:14;;;;;;;42.65;24.90;;;;;;;;;;5047054;28;20075;-60
2021/07/23 06:03:40;;;;;;;39.63;22.95;;;;;;;;;;5043251;28;20393;-60
2021/07/23 06:06:06;;;;;;;48.38;26.88;;;;;;;;;;5042645;28;20032;-60
2021/07/23 06:08:31;;;;;;;39.53;25.55;;;;;;;;;;5048588;28;20112;-60
2021/07/23 06:11:03;;;;;;;44.17;23.23;;;;;;;;;;5046415;28;20062;-60
2021/07/23 06:13:28;;;;;;;39.00;24.10;;;;;;;;;;5042084;28;20071;-60
2021/07/23 06:15:54;;;;;;;45.28;25.50;;;;;;;;;;5036695;28;20447;-61
2021/07/23 06:18:19;;;;;;;36.40;22.77;;;;;;;;;;5040264;28;20171;-60
2021/07/23 06:20:45;;;;;;;45.92;24.38;;;;;;;;;;5043591;28;20128;-60
2021/07/23 06:23:10;;;;;;;38.70;22.95;;;;;;;;;;5043199;28;20029;-60
2021/07/23 06:25:36;;;;;;;38.38;23.90;;;;;;;;;;5046627;28;20032;-60
2021/07/23 06:28:01;;;;;;;41.00;24.15;;;;;;;;;;5041058;28;20123;-60
2021/07/23 06:30:27;;;;;;;36.38;22.30;;;;;;;;;;5051344;28;20072;-60
2021/07/23 06:32:52;;;;;;;31.58;21.88;;;;;;;;;;5041937;28;20048;-60
2021/07/23 06:35:18;;;;;;;36.40;23.05;;;;;;;;;;5045243;28;20029;-60
2021/07/23 06:37:43;;;;;;;40.47;23.20;;;;;;;;;;5043544;28;20480;-60
2021/07/23 06:40:09;;;;;;;38.75;22.38;;;;;;;;;;5041256;28;20075;-60
2021/07/23 06:42:36;;;;;;;39.55;21.65;;;;;;;;;;5038009;28;20062;-60
2021/07/23 06:45:03;;;;;;;35.03;22.40;;;;;;;;;;5035486;28;20032;-60
2021/07/23 06:47:28;;;;;;;43.85;22.30;;;;;;;;;;5038230;28;20161;-60
2021/07/23 06:49:54;;;;;;;32.72;20.65;;;;;;;;;;5043955;28;20528;-60
2021/07/23 06:52:19;;;;;;;34.50;20.67;;;;;;;;;;5050662;28;20057;-60
2021/07/23 06:54:47;;;;;;;35.60;19.42;;;;;;;;;;5046338;28;20427;-60
2021/07/23 06:57:12;;;;;;;28.83;16.73;;;;;;;;;;5047001;28;20039;-60
2021/07/23 06:59:38;;;;;;;29.00;16.77;;;;;;;;;;5041568;28;20038;-61
2021/07/23 07:02:04;;;;;;;30.55;17.05;;;;;;;;;;5038112;28;20064;-60
2021/07/23 07:04:30;;;;;;;39.30;16.67;;;;;;;;;;5043180;28;20017;-60
2021/07/23 07:06:56;;;;;;;35.22;17.60;;;;;;;;;;5039510;28;20087;-60
2021/07/23 07:09:26;;;;;;;28.65;16.17;;;;;;;;;;5046227;28;20033;-60
2021/07/23 07:11:53;;;;;;;29.65;16.30;;;;;;;;;;5041833;28;20111;-60
2021/07/23 07:14:21;;;;;;;39.45;17.33;;;;;;;;;;5040078;28;20021;-61
2021/07/23 07:16:46;;;;;;;31.13;16.42;;;;;;;;;;5037661;28;20228;-61
2021/07/23 07:19:12;;;;;;;30.33;15.43;;;;;;;;;;5038149;28;20534;-60
2021/07/23 07:21:38;;;;;;;39.40;17.02;;;;;;;;;;5041272;28;20029;-60
2021/07/23 07:24:04;;;;;;;29.70;15.93;;;;;;;;;;5041316;28;20044;-60
2021/07/23 07:26:30;;;;;;;36.47;16.67;;;;;;;;;;5037804;28;20059;-60
2021/07/23 07:28:55;;;;;;;37.60;16.60;;;;;;;;;;5038561;28;20028;-61
2021/07/23 07:31:21;;;;;;;29.58;17.27;;;;;;;;;;5044023;28;20036;-60
2021/07/23 07:33:47;;;;;;;33.50;17.52;;;;;;;;;;5037314;28;20060;-60
2021/07/23 07:36:22;;;;;;;29.08;16.45;;;;;;;;;;5040299;28;20024;-61
2021/07/23 07:38:47;;;;;;;30.15;16.08;;;;;;;;;;5039033;28;20063;-62
2021/07/23 07:41:17;;;;;;;32.10;15.75;;;;;;;;;;5043280;28;20048;-62
2021/07/23 07:43:42;;;;;;;29.30;16.70;;;;;;;;;;5037193;28;20025;-62
2021/07/23 07:46:08;;;;;;;34.95;17.60;;;;;;;;;;5042816;28;20044;-61
2021/07/23 07:48:33;;;;;;;34.38;18.08;;;;;;;;;;5031847;28;20036;-62
2021/07/23 07:50:59;;;;;;;33.83;18.35;;;;;;;;;;5036141;28;20396;-60
2021/07/23 07:53:24;;;;;;;37.88;17.85;;;;;;;;;;5042506;28;20040;-62
2021/07/23 07:55:49;;;;;;;35.08;17.77;;;;;;;;;;5041336;28;20116;-61
2021/07/23 07:58:15;;;;;;;30.88;17.95;;;;;;;;;;5041829;28;20029;-62
2021/07/23 08:00:41;;;;;;;32.15;16.77;;;;;;;;;;5038919;28;20032;-61
2021/07/23 08:03:06;;;;;;;32.97;17.40;;;;;;;;;;5039236;28;20371;-61
2021/07/23 08:05:32;;;;;;;35.40;19.00;;;;;;;;;;5044774;28;20130;-62
2021/07/23 08:07:59;;;;;;;35.80;19.98;;;;;;;;;;5048996;28;20025;-61
2021/07/23 08:10:26;;;;;;;44.00;19.90;;;;;;;;;;5040710;28;20033;-62
2021/07/23 08:12:53;;;;;;;40.58;19.45;;;;;;;;;;5039794;28;20029;-61
2021/07/23 08:15:19;;;;;;;50.75;19.88;;;;;;;;;;5035357;28;20025;-60
2021/07/23 08:17:46;;;;;;;39.72;20.17;;;;;;;;;;5043152;28;20515;-61
2021/07/23 08:20:12;;;;;;;39.42;21.05;;;;;;;;;;5038566;28;20041;-61
2021/07/23 08:22:38;;;;;;;44.20;21.30;;;;;;;;;;5040000;28;20091;-61
2021/07/23 08:25:04;;;;;;;44.42;21.23;;;;;;;;;;5042870;28;20029;-61
2021/07/23 08:27:29;;;;;;;47.13;24.48;;;;;;;;;;5043915;28;20033;-61
2021/07/23 08:29:55;;;;;;;49.00;26.27;;;;;;;;;;5035172;28;20492;-61
2021/07/23 08:32:21;;;;;;;48.60;26.33;;;;;;;;;;5039639;28;20048;-61
2021/07/23 08:34:47;;;;;;;56.15;29.92;;;;;;;;;;5036280;28;20029;-62
2021/07/23 08:37:12;;;;;;;60.78;31.17;;;;;;;;;;5036815;28;20032;-61
2021/07/23 08:39:38;;;;;;;72.35;30.00;;;;;;;;;;5039545;28;20119;-61
2021/07/23 08:42:28;;;;;;;69.63;30.48;;;;;;;;;;5044311;28;20357;-61
2021/07/23 08:44:55;;;;;;;69.85;32.00;;;;;;;;;;5037905;28;20042;-61
2021/07/23 08:47:22;;;;;;;68.20;30.77;;;;;;;;;;5038890;28;20056;-62
2021/07/23 08:49:48;;;;;;;41.55;22.27;;;;;;;;;;5037357;28;20310;-61
2021/07/23 08:52:13;;;;;;;62.55;31.20;;;;;;;;;;5039973;28;20692;-61
2021/07/23 08:54:39;;;;;;;61.08;29.05;;;;;;;;;;5049180;28;20064;-63
2021/07/23 08:57:08;;;;;;;65.07;30.48;;;;;;;;;;5033335;28;20464;-62
2021/07/23 08:59:34;;;;;;;66.28;30.52;;;;;;;;;;5040155;28;20060;-62
2021/07/23 09:02:02;;;;;;;58.65;29.42;;;;;;;;;;5048291;28;20444;-61
2021/07/23 09:04:31;;;;;;;70.88;30.83;;;;;;;;;;5045839;28;20422;-61
2021/07/23 09:07:20;;;;;;;57.72;28.42;;;;;;;;;;5037457;28;20061;-61
2021/07/23 09:10:05;;;;;;;68.85;30.98;;;;;;;;;;5034420;28;20539;-61
2021/07/23 09:12:50;;;;;;;61.72;29.02;;;;;;;;;;5040483;28;20400;-61
2021/07/23 09:15:20;;;;;;;58.15;26.83;;;;;;;;;;5036730;28;20435;-61
2021/07/23 09:17:46;;;;;;;63.72;27.40;;;;;;;;;;5041013;28;20099;-61
2021/07/23 09:20:12;;;;;;;43.92;23.05;;;;;;;;;;5042645;28;20025;-61
2021/07/23 09:22:51;;;;;;;47.13;25.42;;;;;;;;;;5042650;28;20502;-61
2021/07/23 09:25:38;;;;;;;46.25;22.52;;;;;;;;;;5035237;28;20481;-61
2021/07/23 09:28:21;;;;;;;42.03;21.80;;;;;;;;;;5041671;28;20036;-61
2021/07/23 09:30:46;;;;;;;41.38;21.27;;;;;;;;;;5036943;28;20034;-62
2021/07/23 09:33:12;;;;;;;48.05;22.00;;;;;;;;;;5038796;28;20458;-61
2021/07/23 09:35:50;;;;;;;42.65;21.60;;;;;;;;;;5041479;28;20021;-61
2021/07/23 09:38:16;;;;;;;37.97;20.42;;;;;;;;;;5044335;28;20138;-61
2021/07/23 09:40:44;;;;;;;40.25;19.67;;;;;;;;;;5039424;28;20721;-61
2021/07/23 09:43:10;;;;;;;44.28;20.52;;;;;;;;;;5045592;28;20370;-60
2021/07/23 09:45:36;;;;;;;33.22;18.83;;;;;;;;;;5041951;28;20040;-60
2021/07/23 09:48:21;;;;;;;33.97;18.13;;;;;;;;;;5039716;28;20033;-60
2021/07/23 09:50:47;;;;;;;43.55;17.98;;;;;;;;;;5043954;28;20049;-60
2021/07/23 09:53:22;;;;;;;35.70;16.55;;;;;;;;;;5034326;28;20029;-60
2021/07/23 09:55:48;;;;;;;32.50;16.38;;;;;;;;;;5038611;28;20029;-60
2021/07/23 09:58:20;;;;;;;34.55;16.20;;;;;;;;;;5037895;28;20385;-60
2021/07/23 10:00:51;;;;;;;24.52;13.35;;;;;;;;;;5039797;28;20035;-60
2021/07/23 10:03:17;;;;;;;37.17;15.77;;;;;;;;;;5042743;28;20510;-60
2021/07/23 10:06:02;;;;;;;27.45;13.52;;;;;;;;;;5038637;28;20244;-61
2021/07/23 10:08:32;;;;;;;28.10;13.70;;;;;;;;;;5041281;28;20387;-60
2021/07/23 10:11:00;;;;;;;32.80;13.10;;;;;;;;;;5036129;28;20033;-60
2021/07/23 10:13:29;;;;;;;29.48;13.10;;;;;;;;;;5041683;28;20035;-61
2021/07/23 10:15:55;;;;;;;22.70;13.25;;;;;;;;;;5035859;28;20056;-61
2021/07/23 10:18:22;;;;;;;28.85;14.07;;;;;;;;;;5042172;28;20040;-61
2021/07/23 10:20:49;;;;;;;27.55;12.90;;;;;;;;;;5039154;28;20595;-61
2021/07/23 10:23:23;;;;;;;29.95;13.95;;;;;;;;;;5038305;28;20104;-62
2021/07/23 10:25:50;;;;;;;26.67;12.80;;;;;;;;;;5040614;28;20568;-61
2021/07/23 10:28:41;;;;;;;31.67;12.60;;;;;;;;;;5037329;28;20037;-61
2021/07/23 10:31:21;;;;;;;24.00;13.03;;;;;;;;;;5044724;28;20229;-61
2021/07/23 10:34:01;;;;;;;28.95;13.35;;;;;;;;;;5036174;28;20453;-62
2021/07/23 10:36:26;;;;;;;27.98;12.88;;;;;;;;;;5036226;28;20022;-61
2021/07/23 10:39:13;;;;;;;29.58;12.52;;;;;;;;;;5038861;28;20044;-61
2021/07/23 10:42:02;;;;;;;27.40;13.48;;;;;;;;;;5035757;28;20029;-61
2021/07/23 10:44:28;;;;;;;30.38;13.13;;;;;;;;;;5040161;28;20053;-60
2021/07/23 10:47:00;;;;;;;35.60;13.35;;;;;;;;;;5040801;28;20059;-60
2021/07/23 10:49:31;;;;;;;30.85;14.35;;;;;;;;;;5035591;28;20049;-60
2021/07/23 10:52:04;;;;;;;36.00;14.80;;;;;;;;;;5046830;28;20071;-59
2021/07/23 10:54:32;;;;;;;36.47;14.05;;;;;;;;;;5037971;28;20098;-60
2021/07/23 10:57:00;;;;;;;35.47;14.55;;;;;;;;;;5037807;28;20138;-59
2021/07/23 10:59:38;;;;;;;42.08;12.93;;;;;;;;;;5038482;28;20025;-60
2021/07/23 11:02:16;;;;;;;28.48;13.25;;;;;;;;;;5037399;28;20018;-59
2021/07/23 11:04:46;;;;;;;32.35;14.20;;;;;;;;;;5040204;28;20530;-60
2021/07/23 11:07:13;;;;;;;36.28;12.80;;;;;;;;;;5033703;28;20075;-60
2021/07/23 11:09:39;;;;;;;29.60;13.82;;;;;;;;;;5042526;28;20040;-60
2021/07/23 11:12:21;;;;;;;30.45;14.02;;;;;;;;;;5047949;28;20107;-60
2021/07/23 11:15:13;;;;;;;30.98;13.43;;;;;;;;;;5038985;28;20114;-61
2021/07/23 11:17:48;;;;;;;;;;;;;;;;;;5036546;28;20053;-60
2021/07/23 11:20:14;;;;;;;30.42;13.52;;;;;;;;;;5038493;28;20042;-61
2021/07/23 11:22:40;;;;;;;26.55;13.10;;;;;;;;;;5035760;28;20143;-62
2021/07/23 11:25:07;;;;;;;31.95;13.40;;;;;;;;;;5035520;28;20025;-61
2021/07/23 11:27:38;;;;;;;27.83;13.50;;;;;;;;;;5039283;28;20036;-61
2021/07/23 11:30:14;;;;;;;22.23;11.98;;;;;;;;;;5038320;28;20356;-61
2021/07/23 11:33:06;;;;;;;31.67;13.68;;;;;;;;;;5034500;28;20041;-60
2021/07/23 11:35:32;;;;;;;;;;;;;;;;;;5039970;28;20109;-61
2021/07/23 11:38:01;;;;;;;27.20;13.15;;;;;;;;;;5040174;28;19951;-61
2021/07/23 11:40:27;;;;;;;26.40;13.65;;;;;;;;;;5041729;28;20021;-61
2021/07/23 11:42:54;;;;;;;25.95;13.93;;;;;;;;;;5037774;28;20435;-60
2021/07/23 11:45:31;;;;;;;31.27;13.80;;;;;;;;;;5039638;28;20025;-59
2021/07/23 11:48:06;;;;;;;29.73;13.57;;;;;;;;;;5035428;28;20025;-60
2021/07/23 11:50:31;;;;;;;28.48;12.73;;;;;;;;;;5040363;28;20052;-59
2021/07/23 11:53:01;;;;;;;27.92;14.00;;;;;;;;;;5034247;28;20582;-59
2021/07/23 11:55:42;;;;;;;35.17;13.52;;;;;;;;;;5037810;28;20455;-60
2021/07/23 11:58:08;;;;;;;26.40;12.95;;;;;;;;;;5035029;28;20380;-59
2021/07/23 12:00:35;;;;;;;32.03;13.18;;;;;;;;;;5035691;28;20033;-59
2021/07/23 12:03:33;;;;;;;28.98;12.82;;;;;;;;;;5034783;28;20033;-59
2021/07/23 12:06:12;;;;;;;33.10;13.43;;;;;;;;;;5008974;28;20041;-59
2021/07/23 12:08:42;;;;;;;26.10;12.88;;;;;;;;;;5032083;28;20029;-59
2021/07/23 12:11:08;;;;;;;37.38;14.55;;;;;;;;;;5033029;28;20028;-60
2021/07/23 12:13:34;;;;;;;25.42;13.68;;;;;;;;;;5036167;28;20034;-61
2021/07/23 12:15:59;;;;;;;31.10;13.85;;;;;;;;;;5037729;28;20067;-61
2021/07/23 12:18:25;;;;;;;28.02;13.40;;;;;;;;;;5042596;28;20514;-61
2021/07/23 12:20:53;;;;;;;25.33;12.73;;;;;;;;;;5044161;28;20372;-61
2021/07/23 12:23:24;;;;;;;32.80;12.82;;;;;;;;;;5036419;28;20029;-61
2021/07/23 12:25:50;;;;;;;27.13;12.38;;;;;;;;;;5040482;28;20035;-60
2021/07/23 12:28:17;;;;;;;24.10;11.60;;;;;;;;;;5040621;28;20033;-61
2021/07/23 12:30:45;;;;;;;32.75;13.88;;;;;;;;;;5036823;28;20049;-61
2021/07/23 12:33:27;;;;;;;25.67;12.80;;;;;;;;;;5037325;28;20048;-60
2021/07/23 12:35:56;;;;;;;30.80;13.95;;;;;;;;;;5041938;28;20037;-61
2021/07/23 12:38:24;;;;;;;30.55;14.55;;;;;;;;;;5047610;28;20535;-61
2021/07/23 12:40:54;;;;;;;28.67;14.93;;;;;;;;;;5041959;28;20087;-61
2021/07/23 12:43:22;;;;;;;27.13;14.60;;;;;;;;;;5044027;28;20033;-61
2021/07/23 12:45:48;;;;;;;27.40;14.38;;;;;;;;;;5045746;28;20042;-61
2021/07/23 12:48:16;;;;;;;31.75;14.43;;;;;;;;;;5048394;28;20103;-61
2021/07/23 12:50:43;;;;;;;32.72;14.63;;;;;;;;;;5048788;28;20480;-61
2021/07/23 12:53:10;;;;;;;25.42;13.90;;;;;;;;;;5045704;28;20033;-61
2021/07/23 12:55:37;;;;;;;32.58;15.90;;;;;;;;;;5051000;28;20090;-60
2021/07/23 12:58:03;;;;;;;33.85;15.00;;;;;;;;;;5043453;28;20377;-61
2021/07/23 13:00:29;;;;;;;34.35;16.67;;;;;;;;;;5041406;28;20030;-61
2021/07/23 13:02:56;;;;;;;33.72;17.58;;;;;;;;;;5040823;28;20048;-61
2021/07/23 13:05:25;;;;;;;38.97;16.77;;;;;;;;;;5047506;28;20030;-61
2021/07/23 13:07:52;;;;;;;29.13;16.55;;;;;;;;;;5043685;28;20060;-61
2021/07/23 13:10:18;;;;;;;39.72;17.73;;;;;;;;;;5041817;28;20092;-61
2021/07/23 13:12:47;;;;;;;31.73;17.30;;;;;;;;;;5039099;28;20389;-62
2021/07/23 13:15:14;;;;;;;36.72;18.52;;;;;;;;;;5039208;28;20040;-63
2021/07/23 13:17:39;;;;;;;33.03;19.65;;;;;;;;;;5045524;28;20053;-62
2021/07/23 13:20:07;;;;;;;40.60;18.33;;;;;;;;;;5041532;28;20028;-62
2021/07/23 13:22:36;;;;;;;35.28;19.15;;;;;;;;;;5044368;28;20025;-62
2021/07/23 13:25:06;;;;;;;39.38;19.33;;;;;;;;;;5025903;28;20443;-62
2021/07/23 13:27:32;;;;;;;39.85;18.67;;;;;;;;;;5044483;28;20028;-62
2021/07/23 13:29:58;;;;;;;38.88;18.42;;;;;;;;;;5043027;28;20033;-62
2021/07/23 13:32:23;;;;;;;44.08;19.45;;;;;;;;;;5044165;28;20033;-62
2021/07/23 13:34:49;;;;;;;47.15;18.85;;;;;;;;;;5044073;28;20029;-62
2021/07/23 13:37:22;;;;;;;41.03;19.38;;;;;;;;;;5048156;28;20044;-62
2021/07/23 13:39:53;;;;;;;39.17;19.13;;;;;;;;;;5045148;28;20108;-62
2021/07/23 13:42:21;;;;;;;39.25;20.08;;;;;;;;;;5041645;28;20361;-62
2021/07/23 13:44:47;;;;;;;37.92;20.08;;;;;;;;;;5047230;28;20523;-62
2021/07/23 13:47:13;;;;;;;41.35;19.95;;;;;;;;;;5044255;28;20052;-62
2021/07/23 13:49:38;;;;;;;39.17;19.98;;;;;;;;;;5041193;28;20028;-64
2021/07/23 13:52:04;;;;;;;38.33;18.35;;;;;;;;;;5039194;28;20441;-62
2021/07/23 13:54:30;;;;;;;34.00;18.65;;;;;;;;;;5039557;28;20074;-62
2021/07/23 13:56:55;;;;;;;37.95;20.25;;;;;;;;;;5035253;28;20073;-62
2021/07/23 13:59:21;;;;;;;38.75;21.50;;;;;;;;;;5041636;28;20028;-62
2021/07/23 14:01:47;;;;;;;39.55;20.50;;;;;;;;;;5038750;28;20033;-62
2021/07/23 14:04:12;;;;;;;37.47;20.50;;;;;;;;;;5044531;28;20040;-62
2021/07/23 14:06:37;;;;;;;44.90;23.23;;;;;;;;;;5036430;28;20018;-63
2021/07/23 14:09:03;;;;;;;43.95;24.17;;;;;;;;;;5046264;28;20025;-62
2021/07/23 14:11:29;;;;;;;46.47;25.73;;;;;;;;;;5040967;28;20034;-62
2021/07/23 14:13:55;;;;;;;49.22;24.17;;;;;;;;;;5041112;28;20233;-62
2021/07/23 14:16:22;;;;;;;42.75;25.50;;;;;;;;;;5044305;28;20045;-62
2021/07/23 14:18:48;;;;;;;45.92;24.80;;;;;;;;;;5046113;28;20036;-63
2021/07/23 14:21:14;;;;;;;44.97;25.85;;;;;;;;;;5037649;28;20033;-61